sensor_id;sensor_type;location;lat;lon;timestamp;temperature;humidity
7494;DHT22;3788;49.902;8.590;2023-09-19T00:01:33;17.80;99.90
7494;DHT22;3788;49.902;8.590;2023-09-19T00:04:01;17.80;99.90
7494;DHT22;3788;49.902;8.590;2023-09-19T00:06:28;17.80;99.90
7494;DHT22;3788;49.902;8.590;2023-09-19T00:08:57;17.90;99.90
7494;DHT22;3788;49.902;8.590;2023-09-19T00:11:25;17.90;99.90
7494;DHT22;3788;49.902;8.590;2023-09-19T00:13:52;17.80;99.90
7494;DHT22;3788;49.902;8.590;2023-09-19T00:16:19;17.80;99.90
7494;DHT22;3788;49.902;8.590;2023-09-19T00:18:46;17.80;99.90
7494;DHT22;3788;49.902;8.590;2023-09-19T00:21:15;17.90;99.90
7494;DHT22;3788;49.902;8.590;2023-09-19T00:23:42;17.90;99.90
7494;DHT22;3788;49.902;8.590;2023-09-19T00:26:08;17.80;99.90
7494;DHT22;3788;49.902;8.590;2023-09-19T00:28:35;17.90;99.90
7494;DHT22;3788;49.902;8.590;2023-09-19T00:31:02;17.90;99.90
7494;DHT22;3788;49.902;8.590;2023-09-19T00:33:30;17.90;99.90
7494;DHT22;3788;49.902;8.590;2023-09-19T00:35:57;17.90;99.90
7494;DHT22;3788;49.902;8.590;2023-09-19T00:38:25;18.00;99.90
7494;DHT22;3788;49.902;8.590;2023-09-19T00:40:54;18.00;99.90
7494;DHT22;3788;49.902;8.590;2023-09-19T00:43:22;18.00;99.90
7494;DHT22;3788;49.902;8.590;2023-09-19T00:45:52;18.00;99.90
7494;DHT22;3788;49.902;8.590;2023-09-19T00:48:19;18.00;99.90
7494;DHT22;3788;49.902;8.590;2023-09-19T00:50:47;18.10;99.90
7494;DHT22;3788;49.902;8.590;2023-09-19T00:53:17;18.00;99.90
7494;DHT22;3788;49.902;8.590;2023-09-19T00:55:47;18.10;99.90
7494;DHT22;3788;49.902;8.590;2023-09-19T00:58:16;18.10;99.90
7494;DHT22;3788;49.902;8.590;2023-09-19T01:00:43;18.10;99.90
7494;DHT22;3788;49.902;8.590;2023-09-19T01:03:10;18.10;99.90
7494;DHT22;3788;49.902;8.590;2023-09-19T01:05:38;18.10;99.90
7494;DHT22;3788;49.902;8.590;2023-09-19T01:08:05;18.10;99.90
7494;DHT22;3788;49.902;8.590;2023-09-19T01:10:33;18.00;99.90
7494;DHT22;3788;49.902;8.590;2023-09-19T01:13:05;18.00;99.90
7494;DHT22;3788;49.902;8.590;2023-09-19T01:15:43;18.00;99.90
7494;DHT22;3788;49.902;8.590;2023-09-19T01:18:27;18.00;99.90
7494;DHT22;3788;49.902;8.590;2023-09-19T01:21:02;18.00;99.90
7494;DHT22;3788;49.902;8.590;2023-09-19T01:23:42;18.00;99.90
7494;DHT22;3788;49.902;8.590;2023-09-19T01:26:30;18.00;99.90
7494;DHT22;3788;49.902;8.590;2023-09-19T01:29:16;18.00;99.90
7494;DHT22;3788;49.902;8.590;2023-09-19T01:31:49;18.00;99.90
7494;DHT22;3788;49.902;8.590;2023-09-19T01:34:19;18.00;99.90
7494;DHT22;3788;49.902;8.590;2023-09-19T01:36:46;18.00;99.90
7494;DHT22;3788;49.902;8.590;2023-09-19T01:39:13;18.00;99.90
7494;DHT22;3788;49.902;8.590;2023-09-19T01:41:54;18.00;99.90
7494;DHT22;3788;49.902;8.590;2023-09-19T01:44:28;18.00;99.90
7494;DHT22;3788;49.902;8.590;2023-09-19T01:46:59;18.00;99.90
7494;DHT22;3788;49.902;8.590;2023-09-19T01:49:33;18.00;99.90
7494;DHT22;3788;49.902;8.590;2023-09-19T01:52:05;18.10;99.90
7494;DHT22;3788;49.902;8.590;2023-09-19T01:54:46;18.10;99.90
7494;DHT22;3788;49.902;8.590;2023-09-19T01:57:17;18.10;99.90
7494;DHT22;3788;49.902;8.590;2023-09-19T01:59:50;18.10;99.90
7494;DHT22;3788;49.902;8.590;2023-09-19T02:02:20;18.10;99.90
7494;DHT22;3788;49.902;8.590;2023-09-19T02:04:48;18.10;99.90
7494;DHT22;3788;49.902;8.590;2023-09-19T02:07:16;18.10;99.90
7494;DHT22;3788;49.902;8.590;2023-09-19T02:09:42;18.10;99.90
7494;DHT22;3788;49.902;8.590;2023-09-19T02:12:09;18.10;99.90
7494;DHT22;3788;49.902;8.590;2023-09-19T02:14:36;18.10;99.90
7494;DHT22;3788;49.902;8.590;2023-09-19T02:17:03;18.00;99.90
7494;DHT22;3788;49.902;8.590;2023-09-19T02:19:37;18.00;99.90
7494;DHT22;3788;49.902;8.590;2023-09-19T02:22:06;18.00;99.90
7494;DHT22;3788;49.902;8.590;2023-09-19T02:24:36;18.00;99.90
7494;DHT22;3788;49.902;8.590;2023-09-19T02:27:03;17.90;99.90
7494;DHT22;3788;49.902;8.590;2023-09-19T02:29:31;17.90;99.90
7494;DHT22;3788;49.902;8.590;2023-09-19T02:32:00;17.90;99.90
7494;DHT22;3788;49.902;8.590;2023-09-19T02:34:27;17.90;99.90
7494;DHT22;3788;49.902;8.590;2023-09-19T02:36:55;17.90;99.90
7494;DHT22;3788;49.902;8.590;2023-09-19T02:39:22;17.80;99.90
7494;DHT22;3788;49.902;8.590;2023-09-19T02:41:49;17.80;99.90
7494;DHT22;3788;49.902;8.590;2023-09-19T02:44:16;17.80;99.90
7494;DHT22;3788;49.902;8.590;2023-09-19T02:46:42;17.70;99.90
7494;DHT22;3788;49.902;8.590;2023-09-19T02:49:09;17.70;99.90
7494;DHT22;3788;49.902;8.590;2023-09-19T02:51:36;17.70;99.90
7494;DHT22;3788;49.902;8.590;2023-09-19T02:54:05;17.60;99.90
7494;DHT22;3788;49.902;8.590;2023-09-19T02:56:33;17.60;99.90
7494;DHT22;3788;49.902;8.590;2023-09-19T02:59:01;17.60;99.90
7494;DHT22;3788;49.902;8.590;2023-09-19T03:01:28;17.60;99.90
7494;DHT22;3788;49.902;8.590;2023-09-19T03:03:55;17.50;99.90
7494;DHT22;3788;49.902;8.590;2023-09-19T03:06:22;17.50;99.90
7494;DHT22;3788;49.902;8.590;2023-09-19T03:08:49;17.50;99.90
7494;DHT22;3788;49.902;8.590;2023-09-19T03:11:18;17.50;99.90
7494;DHT22;3788;49.902;8.590;2023-09-19T03:13:51;17.50;99.90
7494;DHT22;3788;49.902;8.590;2023-09-19T03:16:18;17.50;99.90
7494;DHT22;3788;49.902;8.590;2023-09-19T03:18:47;17.50;99.90
7494;DHT22;3788;49.902;8.590;2023-09-19T03:21:14;17.50;99.90
7494;DHT22;3788;49.902;8.590;2023-09-19T03:23:41;17.40;99.90
7494;DHT22;3788;49.902;8.590;2023-09-19T03:26:11;17.40;99.90
7494;DHT22;3788;49.902;8.590;2023-09-19T03:28:39;17.40;99.90
7494;DHT22;3788;49.902;8.590;2023-09-19T03:31:06;17.40;99.90
7494;DHT22;3788;49.902;8.590;2023-09-19T03:33:33;17.40;99.90
7494;DHT22;3788;49.902;8.590;2023-09-19T03:36:01;17.40;99.90
7494;DHT22;3788;49.902;8.590;2023-09-19T03:38:30;17.40;99.90
7494;DHT22;3788;49.902;8.590;2023-09-19T03:40:57;17.30;99.90
7494;DHT22;3788;49.902;8.590;2023-09-19T03:43:23;17.30;99.90
7494;DHT22;3788;49.902;8.590;2023-09-19T03:45:52;17.30;99.90
7494;DHT22;3788;49.902;8.590;2023-09-19T03:48:19;17.30;99.90
7494;DHT22;3788;49.902;8.590;2023-09-19T03:50:47;17.30;99.90
7494;DHT22;3788;49.902;8.590;2023-09-19T03:53:13;17.30;99.90
7494;DHT22;3788;49.902;8.590;2023-09-19T03:55:40;17.30;99.90
7494;DHT22;3788;49.902;8.590;2023-09-19T03:58:07;17.30;99.90
7494;DHT22;3788;49.902;8.590;2023-09-19T04:00:33;17.30;99.90
7494;DHT22;3788;49.902;8.590;2023-09-19T04:03:02;17.30;99.90
7494;DHT22;3788;49.902;8.590;2023-09-19T04:05:31;17.20;99.90
7494;DHT22;3788;49.902;8.590;2023-09-19T04:07:58;17.20;99.90
7494;DHT22;3788;49.902;8.590;2023-09-19T04:10:25;17.20;99.90
7494;DHT22;3788;49.902;8.590;2023-09-19T04:12:52;17.10;99.90
7494;DHT22;3788;49.902;8.590;2023-09-19T04:15:19;17.00;99.90
7494;DHT22;3788;49.902;8.590;2023-09-19T04:17:48;17.00;99.90
7494;DHT22;3788;49.902;8.590;2023-09-19T04:20:16;16.90;99.90
7494;DHT22;3788;49.902;8.590;2023-09-19T04:22:44;16.90;99.90
7494;DHT22;3788;49.902;8.590;2023-09-19T04:25:11;16.90;99.90
7494;DHT22;3788;49.902;8.590;2023-09-19T04:27:38;16.90;99.90
7494;DHT22;3788;49.902;8.590;2023-09-19T04:30:06;16.90;99.90
7494;DHT22;3788;49.902;8.590;2023-09-19T04:32:35;16.90;99.90
7494;DHT22;3788;49.902;8.590;2023-09-19T04:35:05;17.00;99.90
7494;DHT22;3788;49.902;8.590;2023-09-19T04:37:36;17.00;99.90
7494;DHT22;3788;49.902;8.590;2023-09-19T04:40:05;17.00;99.90
7494;DHT22;3788;49.902;8.590;2023-09-19T04:42:35;17.10;99.90
7494;DHT22;3788;49.902;8.590;2023-09-19T04:45:02;17.10;99.90
7494;DHT22;3788;49.902;8.590;2023-09-19T04:47:30;17.10;99.90
7494;DHT22;3788;49.902;8.590;2023-09-19T04:49:57;17.10;99.90
7494;DHT22;3788;49.902;8.590;2023-09-19T04:52:24;17.10;99.90
7494;DHT22;3788;49.902;8.590;2023-09-19T04:54:52;17.10;99.90
7494;DHT22;3788;49.902;8.590;2023-09-19T04:57:19;17.10;99.90
7494;DHT22;3788;49.902;8.590;2023-09-19T04:59:45;17.10;99.90
7494;DHT22;3788;49.902;8.590;2023-09-19T05:02:12;17.10;99.90
7494;DHT22;3788;49.902;8.590;2023-09-19T05:04:39;17.20;99.90
7494;DHT22;3788;49.902;8.590;2023-09-19T05:07:05;17.20;99.90
7494;DHT22;3788;49.902;8.590;2023-09-19T05:09:32;17.20;99.90
7494;DHT22;3788;49.902;8.590;2023-09-19T05:12:01;17.30;99.90
7494;DHT22;3788;49.902;8.590;2023-09-19T05:14:28;17.30;99.90
7494;DHT22;3788;49.902;8.590;2023-09-19T05:16:55;17.30;99.90
7494;DHT22;3788;49.902;8.590;2023-09-19T05:19:21;17.30;99.90
7494;DHT22;3788;49.902;8.590;2023-09-19T05:21:48;17.30;99.90
7494;DHT22;3788;49.902;8.590;2023-09-19T05:24:15;17.30;99.90
7494;DHT22;3788;49.902;8.590;2023-09-19T05:26:42;17.20;99.90
7494;DHT22;3788;49.902;8.590;2023-09-19T05:29:10;17.30;99.90
7494;DHT22;3788;49.902;8.590;2023-09-19T05:31:38;17.20;99.90
7494;DHT22;3788;49.902;8.590;2023-09-19T05:34:06;17.20;99.90
7494;DHT22;3788;49.902;8.590;2023-09-19T05:36:33;17.20;99.90
7494;DHT22;3788;49.902;8.590;2023-09-19T05:38:59;17.20;99.90
7494;DHT22;3788;49.902;8.590;2023-09-19T05:41:27;17.10;99.90
7494;DHT22;3788;49.902;8.590;2023-09-19T05:43:53;17.10;99.90
7494;DHT22;3788;49.902;8.590;2023-09-19T05:46:21;17.10;99.90
7494;DHT22;3788;49.902;8.590;2023-09-19T05:48:48;17.20;99.90
7494;DHT22;3788;49.902;8.590;2023-09-19T05:51:15;17.20;99.90
7494;DHT22;3788;49.902;8.590;2023-09-19T05:53:43;17.20;99.90
7494;DHT22;3788;49.902;8.590;2023-09-19T05:56:10;17.20;99.90
7494;DHT22;3788;49.902;8.590;2023-09-19T05:58:36;17.30;99.90
7494;DHT22;3788;49.902;8.590;2023-09-19T06:01:03;17.30;99.90
7494;DHT22;3788;49.902;8.590;2023-09-19T06:03:34;17.30;99.90
7494;DHT22;3788;49.902;8.590;2023-09-19T06:06:01;17.40;99.90
7494;DHT22;3788;49.902;8.590;2023-09-19T06:08:27;17.40;99.90
7494;DHT22;3788;49.902;8.590;2023-09-19T06:10:55;17.40;99.90
7494;DHT22;3788;49.902;8.590;2023-09-19T06:13:22;17.40;99.90
7494;DHT22;3788;49.902;8.590;2023-09-19T06:15:52;17.40;99.90
7494;DHT22;3788;49.902;8.590;2023-09-19T06:18:19;17.50;99.90
7494;DHT22;3788;49.902;8.590;2023-09-19T06:20:47;17.50;99.90
7494;DHT22;3788;49.902;8.590;2023-09-19T06:23:16;17.50;99.90
7494;DHT22;3788;49.902;8.590;2023-09-19T06:25:43;17.60;99.90
7494;DHT22;3788;49.902;8.590;2023-09-19T06:28:10;17.60;99.90
7494;DHT22;3788;49.902;8.590;2023-09-19T06:30:38;17.60;99.90
7494;DHT22;3788;49.902;8.590;2023-09-19T06:33:06;17.70;99.90
7494;DHT22;3788;49.902;8.590;2023-09-19T06:35:33;17.80;99.90
7494;DHT22;3788;49.902;8.590;2023-09-19T06:38:03;17.90;99.90
7494;DHT22;3788;49.902;8.590;2023-09-19T06:40:31;18.00;99.90
7494;DHT22;3788;49.902;8.590;2023-09-19T06:42:58;18.00;99.90
7494;DHT22;3788;49.902;8.590;2023-09-19T06:45:27;18.00;99.90
7494;DHT22;3788;49.902;8.590;2023-09-19T06:47:54;18.00;99.90
7494;DHT22;3788;49.902;8.590;2023-09-19T06:50:23;18.00;99.90
7494;DHT22;3788;49.902;8.590;2023-09-19T06:52:51;18.10;99.90
7494;DHT22;3788;49.902;8.590;2023-09-19T06:55:21;18.10;99.90
7494;DHT22;3788;49.902;8.590;2023-09-19T06:57:50;18.10;99.90
7494;DHT22;3788;49.902;8.590;2023-09-19T07:00:20;18.10;99.90
7494;DHT22;3788;49.902;8.590;2023-09-19T07:02:55;18.20;99.90
7494;DHT22;3788;49.902;8.590;2023-09-19T07:05:22;18.30;99.90
7494;DHT22;3788;49.902;8.590;2023-09-19T07:07:49;18.40;99.90
7494;DHT22;3788;49.902;8.590;2023-09-19T07:10:16;18.40;99.90
7494;DHT22;3788;49.902;8.590;2023-09-19T07:12:44;18.50;99.90
7494;DHT22;3788;49.902;8.590;2023-09-19T07:15:12;18.60;99.90
7494;DHT22;3788;49.902;8.590;2023-09-19T07:17:39;18.70;99.90
7494;DHT22;3788;49.902;8.590;2023-09-19T07:20:06;18.80;99.90
7494;DHT22;3788;49.902;8.590;2023-09-19T07:22:33;18.90;99.90
7494;DHT22;3788;49.902;8.590;2023-09-19T07:25:00;18.90;99.90
7494;DHT22;3788;49.902;8.590;2023-09-19T07:27:27;18.90;99.90
7494;DHT22;3788;49.902;8.590;2023-09-19T07:29:55;19.00;99.90
7494;DHT22;3788;49.902;8.590;2023-09-19T07:32:22;19.00;99.60
7494;DHT22;3788;49.902;8.590;2023-09-19T07:34:49;19.10;99.60
7494;DHT22;3788;49.902;8.590;2023-09-19T07:37:16;19.20;99.70
7494;DHT22;3788;49.902;8.590;2023-09-19T07:39:43;19.30;98.90
7494;DHT22;3788;49.902;8.590;2023-09-19T07:42:10;19.40;98.80
7494;DHT22;3788;49.902;8.590;2023-09-19T07:44:43;19.40;98.60
7494;DHT22;3788;49.902;8.590;2023-09-19T07:47:13;19.50;98.20
7494;DHT22;3788;49.902;8.590;2023-09-19T07:49:40;19.50;97.90
7494;DHT22;3788;49.902;8.590;2023-09-19T07:52:07;19.50;97.70
7494;DHT22;3788;49.902;8.590;2023-09-19T07:54:34;19.60;97.30
7494;DHT22;3788;49.902;8.590;2023-09-19T07:57:01;19.70;97.30
7494;DHT22;3788;49.902;8.590;2023-09-19T07:59:28;19.80;96.90
7494;DHT22;3788;49.902;8.590;2023-09-19T08:01:54;19.90;96.20
7494;DHT22;3788;49.902;8.590;2023-09-19T08:04:22;19.90;95.50
7494;DHT22;3788;49.902;8.590;2023-09-19T08:06:51;20.00;95.10
7494;DHT22;3788;49.902;8.590;2023-09-19T08:09:18;20.00;94.60
7494;DHT22;3788;49.902;8.590;2023-09-19T08:11:46;20.00;94.10
7494;DHT22;3788;49.902;8.590;2023-09-19T08:14:12;20.10;94.30
7494;DHT22;3788;49.902;8.590;2023-09-19T08:16:40;20.20;93.90
7494;DHT22;3788;49.902;8.590;2023-09-19T08:19:08;20.20;92.50
7494;DHT22;3788;49.902;8.590;2023-09-19T08:21:38;20.20;92.60
7494;DHT22;3788;49.902;8.590;2023-09-19T08:24:04;20.20;92.60
7494;DHT22;3788;49.902;8.590;2023-09-19T08:26:31;20.20;92.60
7494;DHT22;3788;49.902;8.590;2023-09-19T08:28:58;20.20;92.40
7494;DHT22;3788;49.902;8.590;2023-09-19T08:31:30;20.10;92.70
7494;DHT22;3788;49.902;8.590;2023-09-19T08:33:57;20.10;92.90
7494;DHT22;3788;49.902;8.590;2023-09-19T08:36:23;20.30;93.10
7494;DHT22;3788;49.902;8.590;2023-09-19T08:38:51;20.50;92.50
7494;DHT22;3788;49.902;8.590;2023-09-19T08:41:18;20.70;92.40
7494;DHT22;3788;49.902;8.590;2023-09-19T08:43:45;20.70;91.90
7494;DHT22;3788;49.902;8.590;2023-09-19T08:46:15;20.80;91.90
7494;DHT22;3788;49.902;8.590;2023-09-19T08:48:45;21.00;91.60
7494;DHT22;3788;49.902;8.590;2023-09-19T08:51:18;21.10;90.60
7494;DHT22;3788;49.902;8.590;2023-09-19T08:53:54;21.00;90.10
7494;DHT22;3788;49.902;8.590;2023-09-19T08:56:26;20.90;88.50
7494;DHT22;3788;49.902;8.590;2023-09-19T08:58:57;20.90;88.40
7494;DHT22;3788;49.902;8.590;2023-09-19T09:03:54;21.00;89.60
7494;DHT22;3788;49.902;8.590;2023-09-19T09:06:22;21.10;89.80
7494;DHT22;3788;49.902;8.590;2023-09-19T09:08:50;21.40;89.60
7494;DHT22;3788;49.902;8.590;2023-09-19T09:11:19;21.70;87.40
7494;DHT22;3788;49.902;8.590;2023-09-19T09:13:46;21.90;87.20
7494;DHT22;3788;49.902;8.590;2023-09-19T09:16:14;22.10;85.90
7494;DHT22;3788;49.902;8.590;2023-09-19T09:18:44;22.20;86.40
7494;DHT22;3788;49.902;8.590;2023-09-19T09:21:11;22.20;84.70
7494;DHT22;3788;49.902;8.590;2023-09-19T09:23:40;22.20;85.10
7494;DHT22;3788;49.902;8.590;2023-09-19T09:26:06;22.30;84.90
7494;DHT22;3788;49.902;8.590;2023-09-19T09:28:44;22.40;82.80
7494;DHT22;3788;49.902;8.590;2023-09-19T09:31:22;22.30;82.30
7494;DHT22;3788;49.902;8.590;2023-09-19T09:33:53;22.20;83.00
7494;DHT22;3788;49.902;8.590;2023-09-19T09:36:33;22.10;83.20
7494;DHT22;3788;49.902;8.590;2023-09-19T09:39:02;22.10;83.00
7494;DHT22;3788;49.902;8.590;2023-09-19T09:41:41;22.00;83.40
7494;DHT22;3788;49.902;8.590;2023-09-19T09:44:14;21.90;83.40
7494;DHT22;3788;49.902;8.590;2023-09-19T09:46:43;21.90;83.40
7494;DHT22;3788;49.902;8.590;2023-09-19T09:49:25;22.10;83.10
7494;DHT22;3788;49.902;8.590;2023-09-19T09:52:00;22.20;82.10
7494;DHT22;3788;49.902;8.590;2023-09-19T09:54:31;22.40;81.40
7494;DHT22;3788;49.902;8.590;2023-09-19T09:57:03;22.60;80.30
7494;DHT22;3788;49.902;8.590;2023-09-19T09:59:50;22.60;80.10
7494;DHT22;3788;49.902;8.590;2023-09-19T10:02:20;22.70;79.20
7494;DHT22;3788;49.902;8.590;2023-09-19T10:04:55;22.70;78.70
7494;DHT22;3788;49.902;8.590;2023-09-19T10:07:41;22.70;79.20
7494;DHT22;3788;49.902;8.590;2023-09-19T10:10:13;22.70;78.40
7494;DHT22;3788;49.902;8.590;2023-09-19T10:12:44;22.60;77.20
7494;DHT22;3788;49.902;8.590;2023-09-19T10:15:18;22.60;77.90
7494;DHT22;3788;49.902;8.590;2023-09-19T10:17:47;22.50;78.30
7494;DHT22;3788;49.902;8.590;2023-09-19T10:20:15;22.60;76.90
7494;DHT22;3788;49.902;8.590;2023-09-19T10:23:05;22.60;75.90
7494;DHT22;3788;49.902;8.590;2023-09-19T10:25:37;22.70;75.70
7494;DHT22;3788;49.902;8.590;2023-09-19T10:28:06;22.60;74.90
7494;DHT22;3788;49.902;8.590;2023-09-19T10:30:38;22.40;75.30
7494;DHT22;3788;49.902;8.590;2023-09-19T10:33:10;22.20;74.80
7494;DHT22;3788;49.902;8.590;2023-09-19T10:35:38;22.10;75.60
7494;DHT22;3788;49.902;8.590;2023-09-19T10:38:07;22.00;77.10
7494;DHT22;3788;49.902;8.590;2023-09-19T10:40:37;22.10;77.40
7494;DHT22;3788;49.902;8.590;2023-09-19T10:43:11;22.30;77.70
7494;DHT22;3788;49.902;8.590;2023-09-19T10:45:41;22.20;77.80
7494;DHT22;3788;49.902;8.590;2023-09-19T10:48:10;22.20;77.70
7494;DHT22;3788;49.902;8.590;2023-09-19T10:50:46;22.40;75.90
7494;DHT22;3788;49.902;8.590;2023-09-19T10:53:16;22.50;76.20
7494;DHT22;3788;49.902;8.590;2023-09-19T10:55:50;22.60;76.30
7494;DHT22;3788;49.902;8.590;2023-09-19T10:58:29;22.80;74.50
7494;DHT22;3788;49.902;8.590;2023-09-19T11:01:01;22.90;74.50
7494;DHT22;3788;49.902;8.590;2023-09-19T11:03:37;22.90;74.00
7494;DHT22;3788;49.902;8.590;2023-09-19T11:06:10;22.80;73.00
7494;DHT22;3788;49.902;8.590;2023-09-19T11:08:52;22.90;73.60
7494;DHT22;3788;49.902;8.590;2023-09-19T11:11:39;22.80;72.70
7494;DHT22;3788;49.902;8.590;2023-09-19T11:14:29;22.60;72.90
7494;DHT22;3788;49.902;8.590;2023-09-19T11:17:32;22.40;73.30
7494;DHT22;3788;49.902;8.590;2023-09-19T11:20:32;22.10;74.50
7494;DHT22;3788;49.902;8.590;2023-09-19T11:23:21;22.00;75.00
7494;DHT22;3788;49.902;8.590;2023-09-19T11:25:52;21.90;75.50
7494;DHT22;3788;49.902;8.590;2023-09-19T11:28:33;22.10;75.00
7494;DHT22;3788;49.902;8.590;2023-09-19T11:40:12;22.70;73.10
7494;DHT22;3788;49.902;8.590;2023-09-19T11:42:43;22.70;72.30
7494;DHT22;3788;49.902;8.590;2023-09-19T11:48:23;22.70;73.30
7494;DHT22;3788;49.902;8.590;2023-09-19T11:50:51;22.60;71.50
7494;DHT22;3788;49.902;8.590;2023-09-19T11:53:21;22.60;72.20
7494;DHT22;3788;49.902;8.590;2023-09-19T11:55:50;22.60;71.90
7494;DHT22;3788;49.902;8.590;2023-09-19T11:58:18;22.50;71.80
7494;DHT22;3788;49.902;8.590;2023-09-19T12:00:45;22.50;71.20
7494;DHT22;3788;49.902;8.590;2023-09-19T12:03:13;22.40;72.20
7494;DHT22;3788;49.902;8.590;2023-09-19T12:05:40;22.40;72.40
7494;DHT22;3788;49.902;8.590;2023-09-19T12:08:07;22.40;73.20
7494;DHT22;3788;49.902;8.590;2023-09-19T12:10:45;22.40;73.40
7494;DHT22;3788;49.902;8.590;2023-09-19T12:13:16;22.30;72.00
7494;DHT22;3788;49.902;8.590;2023-09-19T12:15:43;22.30;72.60
7494;DHT22;3788;49.902;8.590;2023-09-19T12:18:26;22.40;72.30
7494;DHT22;3788;49.902;8.590;2023-09-19T12:20:53;22.40;72.60
7494;DHT22;3788;49.902;8.590;2023-09-19T12:23:20;22.50;72.50
7494;DHT22;3788;49.902;8.590;2023-09-19T12:25:46;22.50;73.00
7494;DHT22;3788;49.902;8.590;2023-09-19T12:28:19;22.50;72.20
7494;DHT22;3788;49.902;8.590;2023-09-19T12:30:47;22.50;72.50
7494;DHT22;3788;49.902;8.590;2023-09-19T12:33:16;22.40;71.20
7494;DHT22;3788;49.902;8.590;2023-09-19T12:35:44;22.40;72.00
7494;DHT22;3788;49.902;8.590;2023-09-19T12:38:13;22.40;71.60
7494;DHT22;3788;49.902;8.590;2023-09-19T12:40:50;22.40;70.20
7494;DHT22;3788;49.902;8.590;2023-09-19T12:43:19;22.40;70.00
7494;DHT22;3788;49.902;8.590;2023-09-19T12:45:47;22.50;70.50
7494;DHT22;3788;49.902;8.590;2023-09-19T12:48:21;22.60;69.70
7494;DHT22;3788;49.902;8.590;2023-09-19T12:51:04;22.60;69.20
7494;DHT22;3788;49.902;8.590;2023-09-19T12:53:36;22.60;69.10
7494;DHT22;3788;49.902;8.590;2023-09-19T12:56:06;22.60;68.20
7494;DHT22;3788;49.902;8.590;2023-09-19T12:58:47;22.60;69.20
7494;DHT22;3788;49.902;8.590;2023-09-19T13:01:14;22.70;68.60
7494;DHT22;3788;49.902;8.590;2023-09-19T13:03:41;22.70;68.60
7494;DHT22;3788;49.902;8.590;2023-09-19T13:06:08;22.70;69.30
7494;DHT22;3788;49.902;8.590;2023-09-19T13:08:36;22.70;68.60
7494;DHT22;3788;49.902;8.590;2023-09-19T13:11:09;22.60;69.00
7494;DHT22;3788;49.902;8.590;2023-09-19T13:13:40;22.60;69.90
7494;DHT22;3788;49.902;8.590;2023-09-19T13:16:07;22.60;70.10
7494;DHT22;3788;49.902;8.590;2023-09-19T13:18:45;22.60;69.30
7494;DHT22;3788;49.902;8.590;2023-09-19T13:21:13;22.60;69.40
7494;DHT22;3788;49.902;8.590;2023-09-19T13:23:49;22.60;69.80
7494;DHT22;3788;49.902;8.590;2023-09-19T13:26:15;22.60;69.50
7494;DHT22;3788;49.902;8.590;2023-09-19T13:28:43;22.60;68.90
7494;DHT22;3788;49.902;8.590;2023-09-19T13:31:10;22.60;68.90
7494;DHT22;3788;49.902;8.590;2023-09-19T13:33:42;22.60;68.60
7494;DHT22;3788;49.902;8.590;2023-09-19T13:36:09;22.60;69.10
7494;DHT22;3788;49.902;8.590;2023-09-19T13:38:37;22.60;68.60
7494;DHT22;3788;49.902;8.590;2023-09-19T13:41:04;22.60;69.80
7494;DHT22;3788;49.902;8.590;2023-09-19T13:43:31;22.60;69.30
7494;DHT22;3788;49.902;8.590;2023-09-19T13:45:59;22.60;69.10
7494;DHT22;3788;49.902;8.590;2023-09-19T13:48:26;22.60;69.60
7494;DHT22;3788;49.902;8.590;2023-09-19T13:50:55;22.60;69.80
7494;DHT22;3788;49.902;8.590;2023-09-19T13:53:22;22.60;70.30
7494;DHT22;3788;49.902;8.590;2023-09-19T13:55:48;22.60;69.50
7494;DHT22;3788;49.902;8.590;2023-09-19T13:58:15;22.50;70.10
7494;DHT22;3788;49.902;8.590;2023-09-19T14:00:42;22.60;70.30
7494;DHT22;3788;49.902;8.590;2023-09-19T14:03:10;22.50;69.70
7494;DHT22;3788;49.902;8.590;2023-09-19T14:05:37;22.50;69.60
7494;DHT22;3788;49.902;8.590;2023-09-19T14:08:05;22.40;70.10
7494;DHT22;3788;49.902;8.590;2023-09-19T14:10:32;22.40;71.40
7494;DHT22;3788;49.902;8.590;2023-09-19T14:13:00;22.40;71.50
7494;DHT22;3788;49.902;8.590;2023-09-19T14:15:27;22.40;71.30
7494;DHT22;3788;49.902;8.590;2023-09-19T14:17:56;22.40;71.70
7494;DHT22;3788;49.902;8.590;2023-09-19T14:20:27;22.40;72.00
7494;DHT22;3788;49.902;8.590;2023-09-19T14:22:54;22.40;72.00
7494;DHT22;3788;49.902;8.590;2023-09-19T14:25:21;22.40;72.10
7494;DHT22;3788;49.902;8.590;2023-09-19T14:27:48;22.40;71.80
7494;DHT22;3788;49.902;8.590;2023-09-19T14:30:15;22.40;72.70
7494;DHT22;3788;49.902;8.590;2023-09-19T14:32:41;22.30;71.70
7494;DHT22;3788;49.902;8.590;2023-09-19T14:35:08;22.30;72.20
7494;DHT22;3788;49.902;8.590;2023-09-19T14:37:37;22.20;73.10
7494;DHT22;3788;49.902;8.590;2023-09-19T14:40:06;22.20;73.90
7494;DHT22;3788;49.902;8.590;2023-09-19T14:42:35;22.20;73.90
7494;DHT22;3788;49.902;8.590;2023-09-19T14:45:04;22.20;74.10
7494;DHT22;3788;49.902;8.590;2023-09-19T14:47:31;22.20;74.00
7494;DHT22;3788;49.902;8.590;2023-09-19T14:49:59;22.20;74.40
7494;DHT22;3788;49.902;8.590;2023-09-19T14:52:26;22.20;74.00
7494;DHT22;3788;49.902;8.590;2023-09-19T14:54:55;22.20;73.70
7494;DHT22;3788;49.902;8.590;2023-09-19T14:57:21;22.20;73.70
7494;DHT22;3788;49.902;8.590;2023-09-19T14:59:49;22.20;73.90
7494;DHT22;3788;49.902;8.590;2023-09-19T15:02:16;22.30;74.00
7494;DHT22;3788;49.902;8.590;2023-09-19T15:04:43;22.30;74.10
7494;DHT22;3788;49.902;8.590;2023-09-19T15:07:13;22.30;73.80
7494;DHT22;3788;49.902;8.590;2023-09-19T15:09:40;22.30;73.80
7494;DHT22;3788;49.902;8.590;2023-09-19T15:12:08;22.30;74.30
7494;DHT22;3788;49.902;8.590;2023-09-19T15:14:35;22.40;74.30
7494;DHT22;3788;49.902;8.590;2023-09-19T15:17:02;22.40;73.90
7494;DHT22;3788;49.902;8.590;2023-09-19T15:19:30;22.40;74.50
7494;DHT22;3788;49.902;8.590;2023-09-19T15:21:57;22.50;74.60
7494;DHT22;3788;49.902;8.590;2023-09-19T15:24:24;22.50;74.50
7494;DHT22;3788;49.902;8.590;2023-09-19T15:26:52;22.50;74.50
7494;DHT22;3788;49.902;8.590;2023-09-19T15:29:22;22.50;74.30
7494;DHT22;3788;49.902;8.590;2023-09-19T15:31:48;22.50;74.50
7494;DHT22;3788;49.902;8.590;2023-09-19T15:34:15;22.50;74.90
7494;DHT22;3788;49.902;8.590;2023-09-19T15:36:42;22.60;75.10
7494;DHT22;3788;49.902;8.590;2023-09-19T15:39:09;22.60;74.90
7494;DHT22;3788;49.902;8.590;2023-09-19T15:41:38;22.60;75.30
7494;DHT22;3788;49.902;8.590;2023-09-19T15:44:11;22.60;75.40
7494;DHT22;3788;49.902;8.590;2023-09-19T15:46:39;22.70;75.20
7494;DHT22;3788;49.902;8.590;2023-09-19T15:49:06;22.70;75.00
7494;DHT22;3788;49.902;8.590;2023-09-19T15:51:33;22.70;74.30
7494;DHT22;3788;49.902;8.590;2023-09-19T15:54:02;22.70;74.10
7494;DHT22;3788;49.902;8.590;2023-09-19T15:56:33;22.60;74.90
7494;DHT22;3788;49.902;8.590;2023-09-19T15:59:01;22.60;74.40
7494;DHT22;3788;49.902;8.590;2023-09-19T16:01:27;22.60;74.60
7494;DHT22;3788;49.902;8.590;2023-09-19T16:03:56;22.60;75.10
7494;DHT22;3788;49.902;8.590;2023-09-19T16:06:24;22.60;75.50
7494;DHT22;3788;49.902;8.590;2023-09-19T16:08:53;22.50;75.10
7494;DHT22;3788;49.902;8.590;2023-09-19T16:11:21;22.50;75.10
7494;DHT22;3788;49.902;8.590;2023-09-19T16:13:49;22.40;75.10
7494;DHT22;3788;49.902;8.590;2023-09-19T16:16:17;22.40;75.50
7494;DHT22;3788;49.902;8.590;2023-09-19T16:18:45;22.30;76.20
7494;DHT22;3788;49.902;8.590;2023-09-19T16:21:16;22.30;76.80
7494;DHT22;3788;49.902;8.590;2023-09-19T16:23:45;22.30;76.80
7494;DHT22;3788;49.902;8.590;2023-09-19T16:26:12;22.20;77.20
7494;DHT22;3788;49.902;8.590;2023-09-19T16:28:40;22.20;77.30
7494;DHT22;3788;49.902;8.590;2023-09-19T16:31:08;22.10;77.70